Time;durP1;ratioP1;P1;durP2;ratioP2;P2;SDS_P1;SDS_P2;PMS_P1;PMS_P2;Temp;Humidity;BMP_temperature;BMP_pressure;BME280_temperature;BME280_humidity;BME280_pressure;Samples;Min_cycle;Max_cycle;Signal;HPM_P1;HPM_P2
2021/12/12 00:00:48;;;;;;;31.70;14.87;;;;;;;;;;5021608;28;20634;-79
2021/12/12 00:03:32;;;;;;;31.83;15.10;;;;;;;;;;5038027;28;20177;-79
2021/12/12 00:05:58;;;;;;;30.30;14.83;;;;;;;;;;5037544;28;20198;-79
2021/12/12 00:08:26;;;;;;;31.23;15.73;;;;;;;;;;5037752;28;20267;-79
2021/12/12 00:10:59;;;;;;;30.13;14.87;;;;;;;;;;5021535;28;20695;-79
2021/12/12 00:13:28;;;;;;;29.07;14.97;;;;;;;;;;5038013;28;20659;-79
2021/12/12 00:15:54;;;;;;;30.77;15.93;;;;;;;;;;5037890;28;20196;-79
2021/12/12 00:18:20;;;;;;;30.00;15.20;;;;;;;;;;5037613;28;20180;-79
2021/12/12 00:20:46;;;;;;;32.57;16.60;;;;;;;;;;5037698;28;20175;-79
2021/12/12 00:23:12;;;;;;;33.40;16.23;;;;;;;;;;5021905;28;20279;-79
2021/12/12 00:25:41;;;;;;;33.80;15.53;;;;;;;;;;5021114;28;20197;-79
2021/12/12 00:28:07;;;;;;;31.30;15.87;;;;;;;;;;5037313;28;20269;-79
2021/12/12 00:30:34;;;;;;;31.83;15.77;;;;;;;;;;5020867;28;20236;-79
2021/12/12 00:33:00;;;;;;;30.13;15.23;;;;;;;;;;5037566;28;20175;-79
2021/12/12 00:35:26;;;;;;;33.03;16.27;;;;;;;;;;5021164;28;20194;-79
2021/12/12 00:37:56;;;;;;;35.43;16.13;;;;;;;;;;5037173;28;20207;-79
2021/12/12 00:40:25;;;;;;;33.57;15.63;;;;;;;;;;5037480;28;20247;-79
2021/12/12 00:42:53;;;;;;;36.17;16.47;;;;;;;;;;5020873;28;20598;-79
2021/12/12 00:45:19;;;;;;;38.53;16.33;;;;;;;;;;5037805;28;20222;-80
2021/12/12 00:47:46;;;;;;;34.63;15.83;;;;;;;;;;5020921;28;20183;-80
2021/12/12 00:50:24;;;;;;;33.37;15.97;;;;;;;;;;5037447;28;20734;-80
2021/12/12 00:52:50;;;;;;;31.77;15.53;;;;;;;;;;5037296;28;20180;-80
2021/12/12 00:55:16;;;;;;;33.30;16.30;;;;;;;;;;5021077;28;20202;-80
2021/12/12 00:57:44;;;;;;;29.30;14.53;;;;;;;;;;5020694;28;20205;-80
2021/12/12 01:00:12;;;;;;;35.37;15.83;;;;;;;;;;5037207;28;20174;-80
2021/12/12 01:02:38;;;;;;;32.93;15.83;;;;;;;;;;5020530;28;20232;-80
2021/12/12 01:05:05;;;;;;;32.27;15.87;;;;;;;;;;5020382;28;20209;-79
2021/12/12 01:07:34;;;;;;;33.30;15.33;;;;;;;;;;5020773;28;20181;-80
2021/12/12 01:10:04;;;;;;;30.33;15.33;;;;;;;;;;5020612;28;20359;-80
2021/12/12 01:12:32;;;;;;;34.57;16.00;;;;;;;;;;5036751;28;20548;-80
2021/12/12 01:15:00;;;;;;;35.17;15.33;;;;;;;;;;5020533;28;20747;-80
2021/12/12 01:17:37;;;;;;;30.17;14.67;;;;;;;;;;5020387;28;20274;-79
2021/12/12 01:20:31;;;;;;;34.07;15.97;;;;;;;;;;5020721;28;20668;-79
2021/12/12 01:22:58;;;;;;;30.20;13.73;;;;;;;;;;5032823;28;20241;-80
2021/12/12 01:25:26;;;;;;;32.00;15.30;;;;;;;;;;5036483;28;20591;-80
2021/12/12 01:27:53;;;;;;;30.50;15.10;;;;;;;;;;5020380;28;20332;-80
2021/12/12 01:30:20;;;;;;;30.80;14.67;;;;;;;;;;5036323;28;20206;-80
2021/12/12 01:32:47;;;;;;;29.70;14.37;;;;;;;;;;5020091;28;20179;-79
2021/12/12 01:35:16;;;;;;;29.93;14.63;;;;;;;;;;5019977;28;20190;-79
2021/12/12 01:37:51;;;;;;;29.20;14.93;;;;;;;;;;5020680;28;20183;-80
2021/12/12 01:40:26;;;;;;;30.97;13.33;;;;;;;;;;5021365;28;20680;-80
2021/12/12 01:42:58;;;;;;;26.87;14.03;;;;;;;;;;5019868;28;20232;-80
2021/12/12 01:45:27;;;;;;;30.43;14.97;;;;;;;;;;5019756;28;20293;-80
2021/12/12 01:47:53;;;;;;;28.00;13.87;;;;;;;;;;5036223;28;20187;-80
2021/12/12 01:50:22;;;;;;;26.27;14.07;;;;;;;;;;5035831;28;20208;-80
2021/12/12 01:52:49;;;;;;;25.03;13.63;;;;;;;;;;5036248;28;20177;-80
2021/12/12 01:55:23;;;;;;;27.30;13.40;;;;;;;;;;5019965;28;20205;-80
2021/12/12 01:57:51;;;;;;;23.10;12.73;;;;;;;;;;5035794;28;20185;-79
2021/12/12 02:00:21;;;;;;;20.87;10.60;;;;;;;;;;5019187;28;20188;-79
2021/12/12 02:02:47;;;;;;;21.47;10.43;;;;;;;;;;5035726;28;20188;-80
2021/12/12 02:05:14;;;;;;;19.00;9.90;;;;;;;;;;5035679;28;20199;-79
2021/12/12 02:07:42;;;;;;;17.23;9.63;;;;;;;;;;5019495;28;20179;-80
2021/12/12 02:10:11;;;;;;;16.87;9.97;;;;;;;;;;5019448;28;20213;-79
2021/12/12 02:12:37;;;;;;;15.93;9.20;;;;;;;;;;5019324;28;20183;-80
2021/12/12 02:15:06;;;;;;;15.57;9.37;;;;;;;;;;5035891;28;20197;-80
2021/12/12 02:17:39;;;;;;;18.27;10.47;;;;;;;;;;5019586;28;20269;-79
2021/12/12 02:20:18;;;;;;;17.17;9.87;;;;;;;;;;5035802;28;20192;-79
2021/12/12 02:36:41;;;;;;;22.47;12.83;;;;;;;;;;5038515;28;20670;-80
2021/12/12 02:39:15;;;;;;;21.27;12.77;;;;;;;;;;5019618;28;20174;-80
2021/12/12 02:41:42;;;;;;;22.27;12.40;;;;;;;;;;5019840;28;20244;-80
2021/12/12 02:44:08;;;;;;;21.63;12.00;;;;;;;;;;5035454;28;20187;-80
2021/12/12 02:46:36;;;;;;;21.17;12.20;;;;;;;;;;5018822;28;20198;-80
2021/12/12 02:49:11;;;;;;;19.73;11.83;;;;;;;;;;5019442;28;20238;-80
2021/12/12 02:51:40;;;;;;;19.80;11.13;;;;;;;;;;5019786;28;20228;-80
2021/12/12 02:54:06;;;;;;;19.27;10.97;;;;;;;;;;5019000;28;20269;-80
2021/12/12 02:56:35;;;;;;;14.83;9.37;;;;;;;;;;5018904;28;20179;-80
2021/12/12 02:59:03;;;;;;;15.50;9.27;;;;;;;;;;5019145;28;20281;-80
2021/12/12 03:01:32;;;;;;;16.30;9.70;;;;;;;;;;5018897;28;20687;-79
2021/12/12 03:03:59;;;;;;;14.03;9.63;;;;;;;;;;5035225;28;20257;-79
2021/12/12 03:06:27;;;;;;;14.23;9.20;;;;;;;;;;5035087;28;20268;-80
2021/12/12 03:08:55;;;;;;;15.10;9.33;;;;;;;;;;5018709;28;20213;-80
2021/12/12 03:11:24;;;;;;;12.80;8.27;;;;;;;;;;5018673;28;20252;-80
2021/12/12 03:13:51;;;;;;;12.60;8.10;;;;;;;;;;5019189;28;20180;-79
2021/12/12 03:16:17;;;;;;;10.47;7.80;;;;;;;;;;5019068;28;20205;-79
2021/12/12 03:18:45;;;;;;;16.57;8.10;;;;;;;;;;5035245;28;20177;-80
2021/12/12 03:21:16;;;;;;;14.53;7.27;;;;;;;;;;5018551;28;20190;-79
2021/12/12 03:23:48;;;;;;;12.27;7.07;;;;;;;;;;5018449;28;20188;-79
2021/12/12 03:26:15;;;;;;;8.93;6.47;;;;;;;;;;5018468;28;20688;-80
2021/12/12 03:28:43;;;;;;;10.53;6.77;;;;;;;;;;5018234;28;20636;-80
2021/12/12 03:31:11;;;;;;;8.50;5.57;;;;;;;;;;5018338;28;20210;-79
2021/12/12 03:33:37;;;;;;;9.53;5.80;;;;;;;;;;5018424;28;20228;-79
2021/12/12 03:36:06;;;;;;;10.17;5.83;;;;;;;;;;5034673;28;20284;-79
2021/12/12 03:38:33;;;;;;;8.50;5.10;;;;;;;;;;5018789;28;20277;-79
2021/12/12 03:41:01;;;;;;;8.60;5.50;;;;;;;;;;5019324;28;20178;-79
2021/12/12 03:43:27;;;;;;;8.27;5.50;;;;;;;;;;5021902;28;20178;-79
2021/12/12 03:45:53;;;;;;;9.23;4.80;;;;;;;;;;5022034;28;20217;-79
2021/12/12 03:48:22;;;;;;;7.07;4.77;;;;;;;;;;5038283;28;20173;-79
2021/12/12 03:50:49;;;;;;;6.43;4.57;;;;;;;;;;5037842;28;20586;-79
2021/12/12 03:53:16;;;;;;;6.73;4.40;;;;;;;;;;5038460;28;20209;-79
2021/12/12 03:55:43;;;;;;;7.03;4.10;;;;;;;;;;5038136;28;20204;-79
2021/12/12 03:58:09;;;;;;;7.63;4.70;;;;;;;;;;5022010;28;20185;-79
2021/12/12 04:00:42;;;;;;;7.57;4.70;;;;;;;;;;5037859;28;20614;-79
2021/12/12 04:03:09;;;;;;;7.20;4.20;;;;;;;;;;5038170;28;20227;-80
2021/12/12 04:05:35;;;;;;;6.67;4.60;;;;;;;;;;5021798;28;20570;-79
2021/12/12 04:08:01;;;;;;;9.17;4.33;;;;;;;;;;5022043;28;20219;-79
2021/12/12 04:10:27;;;;;;;9.63;4.20;;;;;;;;;;5037646;28;20275;-79
2021/12/12 04:12:54;;;;;;;8.80;4.30;;;;;;;;;;5038127;28;20170;-79
2021/12/12 04:15:21;;;;;;;6.40;4.00;;;;;;;;;;5037865;28;20198;-79
2021/12/12 04:17:47;;;;;;;5.30;3.80;;;;;;;;;;5037848;28;20248;-79
2021/12/12 04:20:15;;;;;;;11.30;4.63;;;;;;;;;;5038066;28;20179;-79
2021/12/12 04:22:42;;;;;;;7.17;3.80;;;;;;;;;;5021558;28;20213;-79
2021/12/12 04:25:08;;;;;;;6.03;3.97;;;;;;;;;;5037689;28;20288;-79
2021/12/12 04:27:35;;;;;;;6.83;3.57;;;;;;;;;;5037660;28;20178;-79
2021/12/12 04:30:04;;;;;;;5.67;3.53;;;;;;;;;;5037390;28;20240;-79
2021/12/12 04:32:31;;;;;;;6.43;3.80;;;;;;;;;;5037326;28;20170;-79
2021/12/12 04:35:08;;;;;;;9.87;4.03;;;;;;;;;;5021521;28;20194;-79
2021/12/12 04:37:34;;;;;;;8.37;3.90;;;;;;;;;;5021232;28;20178;-79
2021/12/12 04:40:00;;;;;;;6.00;3.70;;;;;;;;;;5037245;28;20213;-79
2021/12/12 04:42:31;;;;;;;6.60;4.00;;;;;;;;;;5037390;28;20174;-79
2021/12/12 04:45:16;;;;;;;7.10;3.77;;;;;;;;;;5020780;28;20276;-79
2021/12/12 04:50:49;;;;;;;8.27;4.50;;;;;;;;;;5054840;28;20299;-79
2021/12/12 04:53:31;;;;;;;7.33;4.30;;;;;;;;;;5036832;28;20624;-79
2021/12/12 04:56:07;;;;;;;8.33;3.90;;;;;;;;;;5037159;28;20194;-79
2021/12/12 04:58:36;;;;;;;9.13;4.20;;;;;;;;;;5037116;28;20176;-79
2021/12/12 05:01:05;;;;;;;9.80;4.37;;;;;;;;;;5037111;28;20690;-79
2021/12/12 05:03:37;;;;;;;10.53;4.97;;;;;;;;;;5036941;28;20228;-80
2021/12/12 05:06:03;;;;;;;11.03;4.43;;;;;;;;;;5037184;28;20664;-79
2021/12/12 05:08:35;;;;;;;8.87;4.50;;;;;;;;;;5037177;28;20184;-79
2021/12/12 05:11:06;;;;;;;8.00;4.70;;;;;;;;;;5036402;28;20177;-79
2021/12/12 05:13:37;;;;;;;7.17;4.17;;;;;;;;;;5036181;28;20174;-79
2021/12/12 05:16:27;;;;;;;7.67;4.73;;;;;;;;;;5020322;28;20205;-79
2021/12/12 05:19:00;;;;;;;7.03;4.53;;;;;;;;;;5026454;28;20186;-79
2021/12/12 05:21:28;;;;;;;7.40;4.80;;;;;;;;;;5036713;28;20667;-79
2021/12/12 05:23:58;;;;;;;8.03;5.03;;;;;;;;;;5036646;28;20169;-79
2021/12/12 05:26:27;;;;;;;9.90;5.17;;;;;;;;;;5036450;28;20197;-79
2021/12/12 05:28:59;;;;;;;8.90;4.50;;;;;;;;;;5020148;28;20216;-79
2021/12/12 05:31:26;;;;;;;6.07;4.40;;;;;;;;;;5036470;28;20174;-79
2021/12/12 05:33:53;;;;;;;9.07;4.60;;;;;;;;;;5020000;28;20194;-79
2021/12/12 05:36:19;;;;;;;12.03;4.23;;;;;;;;;;5036422;28;20247;-79
2021/12/12 05:38:46;;;;;;;11.67;4.70;;;;;;;;;;5036118;28;20185;-79
2021/12/12 05:41:12;;;;;;;6.30;3.87;;;;;;;;;;5036008;28;20656;-79
2021/12/12 05:43:38;;;;;;;8.47;3.90;;;;;;;;;;5036466;28;20181;-79
2021/12/12 05:46:05;;;;;;;6.87;4.37;;;;;;;;;;5019971;28;20308;-81
2021/12/12 05:48:31;;;;;;;9.53;4.93;;;;;;;;;;5019984;28;20186;-79
2021/12/12 05:51:00;;;;;;;9.17;4.23;;;;;;;;;;5035761;28;20239;-79
2021/12/12 05:53:26;;;;;;;8.63;4.57;;;;;;;;;;5036448;28;20201;-79
2021/12/12 05:55:52;;;;;;;9.87;4.97;;;;;;;;;;5036007;28;20205;-79
2021/12/12 05:58:20;;;;;;;7.93;4.37;;;;;;;;;;5036269;28;20170;-79
2021/12/12 06:00:48;;;;;;;10.50;4.87;;;;;;;;;;5020188;28;20185;-79
2021/12/12 06:03:16;;;;;;;9.33;4.93;;;;;;;;;;5036041;28;20330;-79
2021/12/12 06:05:42;;;;;;;9.07;5.13;;;;;;;;;;5035004;28;20295;-79
2021/12/12 06:08:08;;;;;;;9.80;5.37;;;;;;;;;;5035876;28;20724;-79
2021/12/12 06:10:36;;;;;;;9.57;4.90;;;;;;;;;;5034245;28;20240;-79
2021/12/12 06:13:03;;;;;;;7.90;4.80;;;;;;;;;;5034577;28;20268;-78
2021/12/12 06:15:30;;;;;;;7.63;4.43;;;;;;;;;;5034341;28;20189;-79
2021/12/12 06:17:57;;;;;;;9.03;4.50;;;;;;;;;;5034328;28;20180;-79
2021/12/12 06:20:23;;;;;;;8.40;4.57;;;;;;;;;;5017761;28;20272;-78
2021/12/12 06:22:49;;;;;;;8.30;4.70;;;;;;;;;;5018136;28;20243;-80
2021/12/12 06:25:16;;;;;;;7.37;4.20;;;;;;;;;;5018340;28;20255;-79
2021/12/12 06:27:42;;;;;;;8.23;4.63;;;;;;;;;;5034784;28;20177;-82
2021/12/12 06:30:14;;;;;;;10.20;4.60;;;;;;;;;;5034512;28;20204;-79
2021/12/12 06:32:41;;;;;;;8.97;4.13;;;;;;;;;;5034320;28;20176;-79
2021/12/12 06:35:07;;;;;;;10.07;4.40;;;;;;;;;;5018117;28;20202;-79
2021/12/12 06:37:34;;;;;;;8.73;4.83;;;;;;;;;;5018193;28;20178;-79
2021/12/12 06:40:00;;;;;;;8.07;4.03;;;;;;;;;;5018499;28;20235;-79
2021/12/12 06:42:27;;;;;;;11.70;4.53;;;;;;;;;;5034474;28;20268;-79
2021/12/12 06:44:53;;;;;;;9.80;4.47;;;;;;;;;;5034683;28;20217;-79
2021/12/12 06:47:20;;;;;;;9.23;4.30;;;;;;;;;;5034480;28;20177;-78
2021/12/12 06:49:46;;;;;;;8.93;4.10;;;;;;;;;;5018071;28;20208;-79
2021/12/12 06:52:14;;;;;;;7.70;4.00;;;;;;;;;;5017569;28;20185;-79
2021/12/12 06:54:41;;;;;;;8.03;4.10;;;;;;;;;;5017777;28;20201;-79
2021/12/12 06:57:09;;;;;;;8.43;4.20;;;;;;;;;;5034172;28;20537;-79
2021/12/12 06:59:37;;;;;;;9.77;4.00;;;;;;;;;;5018058;28;20190;-79
2021/12/12 07:02:04;;;;;;;9.40;4.33;;;;;;;;;;5034173;28;20651;-80
2021/12/12 07:04:31;;;;;;;9.97;4.50;;;;;;;;;;5034262;28;20281;-77
2021/12/12 07:06:59;;;;;;;9.20;4.47;;;;;;;;;;5034087;28;20170;-79
2021/12/12 07:09:27;;;;;;;9.20;4.57;;;;;;;;;;5033886;28;20201;-79
2021/12/12 07:11:53;;;;;;;8.63;4.03;;;;;;;;;;5033585;28;20580;-79
2021/12/12 07:14:19;;;;;;;8.23;4.10;;;;;;;;;;5033837;28;20265;-79
2021/12/12 07:16:45;;;;;;;6.77;4.00;;;;;;;;;;5036149;28;20185;-78
2021/12/12 07:19:14;;;;;;;10.43;3.70;;;;;;;;;;5037817;28;20562;-79
2021/12/12 07:21:41;;;;;;;5.50;3.53;;;;;;;;;;5037585;28;20192;-77
2021/12/12 07:24:07;;;;;;;6.73;3.50;;;;;;;;;;5037565;28;20252;-78
2021/12/12 07:26:33;;;;;;;8.33;3.30;;;;;;;;;;5021278;28;20217;-78
2021/12/12 07:29:00;;;;;;;8.53;3.33;;;;;;;;;;5021122;28;20202;-79
2021/12/12 07:31:27;;;;;;;7.57;3.70;;;;;;;;;;5037269;28;20173;-78
2021/12/12 07:33:55;;;;;;;8.00;3.53;;;;;;;;;;5021013;28;20778;-78
2021/12/12 07:36:22;;;;;;;7.47;3.80;;;;;;;;;;5021174;28;20300;-77
2021/12/12 07:38:58;;;;;;;7.57;3.73;;;;;;;;;;5037480;28;20185;-78
2021/12/12 07:41:29;;;;;;;8.43;3.37;;;;;;;;;;5037029;28;20173;-78
2021/12/12 07:43:56;;;;;;;7.57;3.60;;;;;;;;;;5037199;28;20197;-78
2021/12/12 07:46:23;;;;;;;6.83;3.77;;;;;;;;;;5037587;28;20218;-78
2021/12/12 07:48:50;;;;;;;8.67;3.97;;;;;;;;;;5037315;28;20177;-77
2021/12/12 07:51:16;;;;;;;6.67;3.80;;;;;;;;;;5037175;28;20181;-77
2021/12/12 07:53:42;;;;;;;5.50;3.50;;;;;;;;;;5037167;28;20274;-77
2021/12/12 07:56:08;;;;;;;6.17;4.03;;;;;;;;;;5020552;28;20217;-78
2021/12/12 07:58:35;;;;;;;8.73;4.30;;;;;;;;;;5020512;28;20178;-77
2021/12/12 08:01:02;;;;;;;9.57;4.13;;;;;;;;;;5036838;28;20602;-77
2021/12/12 08:03:30;;;;;;;6.63;3.03;;;;;;;;;;5037084;28;20170;-77
2021/12/12 08:05:56;;;;;;;6.83;3.43;;;;;;;;;;5036694;28;20232;-77
2021/12/12 08:08:24;;;;;;;7.23;3.67;;;;;;;;;;5036891;28;20240;-77
2021/12/12 08:10:50;;;;;;;7.17;3.63;;;;;;;;;;5020127;28;20263;-77
2021/12/12 08:13:18;;;;;;;10.03;3.97;;;;;;;;;;5036560;28;20169;-77
2021/12/12 08:15:45;;;;;;;8.03;3.67;;;;;;;;;;5020353;28;20201;-78
2021/12/12 08:18:12;;;;;;;8.30;3.40;;;;;;;;;;5036623;28;20697;-76
2021/12/12 08:20:38;;;;;;;6.13;3.27;;;;;;;;;;5036467;28;20188;-77
2021/12/12 08:23:05;;;;;;;5.83;3.30;;;;;;;;;;5036848;28;20224;-78
2021/12/12 08:25:31;;;;;;;8.57;3.20;;;;;;;;;;5020147;28;20201;-79
2021/12/12 08:28:00;;;;;;;8.83;3.03;;;;;;;;;;5019758;28;20197;-79
2021/12/12 08:30:27;;;;;;;4.83;3.10;;;;;;;;;;5037084;28;20206;-80
2021/12/12 08:32:53;;;;;;;7.03;3.50;;;;;;;;;;5020754;28;20272;-80
2021/12/12 08:35:21;;;;;;;9.13;3.00;;;;;;;;;;5020721;28;20201;-80
2021/12/12 08:37:48;;;;;;;8.00;3.23;;;;;;;;;;5020580;28;20177;-80
2021/12/12 08:40:18;;;;;;;5.97;2.93;;;;;;;;;;5037104;28;20274;-80
2021/12/12 08:42:44;;;;;;;6.43;3.00;;;;;;;;;;5036847;28;20210;-80
2021/12/12 08:45:11;;;;;;;9.03;3.00;;;;;;;;;;5036923;28;20277;-80
2021/12/12 08:47:38;;;;;;;7.63;2.67;;;;;;;;;;5020702;28;20182;-80
2021/12/12 08:50:09;;;;;;;4.27;2.50;;;;;;;;;;5036849;28;20193;-80
2021/12/12 08:52:39;;;;;;;7.83;2.87;;;;;;;;;;5020449;28;20217;-80
2021/12/12 08:55:15;;;;;;;6.70;2.53;;;;;;;;;;5020884;28;20201;-80
2021/12/12 08:57:50;;;;;;;5.77;2.50;;;;;;;;;;5037099;28;20614;-79
2021/12/12 09:00:18;;;;;;;6.30;2.43;;;;;;;;;;5022128;28;20176;-79
2021/12/12 09:03:01;;;;;;;7.37;2.67;;;;;;;;;;5037108;28;20183;-79
2021/12/12 09:05:30;;;;;;;6.87;2.60;;;;;;;;;;5036880;28;20196;-78
2021/12/12 09:08:00;;;;;;;6.30;2.50;;;;;;;;;;5036346;28;20179;-78
2021/12/12 09:10:28;;;;;;;4.70;2.43;;;;;;;;;;5036063;28;20202;-78
2021/12/12 09:13:02;;;;;;;7.50;2.70;;;;;;;;;;5019254;28;20178;-78
2021/12/12 09:15:43;;;;;;;8.63;2.47;;;;;;;;;;5035407;28;20225;-78
2021/12/12 09:18:16;;;;;;;5.40;2.40;;;;;;;;;;5035625;28;20181;-78
2021/12/12 09:20:48;;;;;;;7.70;2.47;;;;;;;;;;5035391;28;20179;-78
2021/12/12 09:23:21;;;;;;;4.23;2.20;;;;;;;;;;5035397;28;20191;-79
2021/12/12 09:25:52;;;;;;;5.17;2.27;;;;;;;;;;5035309;28;20226;-78
2021/12/12 09:28:27;;;;;;;7.67;3.97;;;;;;;;;;5035104;28;20529;-78
2021/12/12 09:30:53;;;;;;;4.40;2.53;;;;;;;;;;5035128;28;20215;-78
2021/12/12 09:33:29;;;;;;;3.23;2.10;;;;;;;;;;5035228;28;20548;-79
2021/12/12 09:35:58;;;;;;;5.00;2.53;;;;;;;;;;5035231;28;20200;-78
2021/12/12 09:38:29;;;;;;;8.37;2.33;;;;;;;;;;5018749;28;20179;-79
2021/12/12 09:41:11;;;;;;;7.13;2.40;;;;;;;;;;5034957;28;20215;-78
2021/12/12 09:43:40;;;;;;;8.47;2.23;;;;;;;;;;5035241;28;20174;-78
2021/12/12 09:46:10;;;;;;;5.93;2.70;;;;;;;;;;5034838;28;20211;-78
2021/12/12 09:51:58;;;;;;;9.30;2.67;;;;;;;;;;5052480;28;20177;-78
2021/12/12 09:54:34;;;;;;;5.40;2.40;;;;;;;;;;5034814;28;20182;-78
2021/12/12 09:57:22;;;;;;;5.70;2.40;;;;;;;;;;5034865;28;20236;-78
2021/12/12 09:59:48;;;;;;;5.20;2.40;;;;;;;;;;5035103;28;20178;-78
2021/12/12 10:02:17;;;;;;;5.73;2.27;;;;;;;;;;5034310;28;20185;-78
2021/12/12 10:04:43;;;;;;;5.07;2.33;;;;;;;;;;5034509;28;20201;-78
2021/12/12 10:07:28;;;;;;;4.73;2.50;;;;;;;;;;5034781;28;20209;-78
2021/12/12 10:09:59;;;;;;;7.87;2.53;;;;;;;;;;5034249;28;20213;-78
2021/12/12 10:12:27;;;;;;;5.73;2.77;;;;;;;;;;5017957;28;20182;-78
2021/12/12 10:14:59;;;;;;;5.07;2.10;;;;;;;;;;5034569;28;20199;-79
2021/12/12 10:17:31;;;;;;;8.20;2.30;;;;;;;;;;5034631;28;20202;-78
2021/12/12 10:20:06;;;;;;;6.77;2.50;;;;;;;;;;5034424;28;20173;-79
2021/12/12 10:22:42;;;;;;;5.00;2.20;;;;;;;;;;5017964;28;20235;-78
2021/12/12 10:25:11;;;;;;;6.33;2.77;;;;;;;;;;5034452;28;20220;-78
2021/12/12 10:27:53;;;;;;;4.53;2.73;;;;;;;;;;5034443;28;20198;-79
2021/12/12 10:30:22;;;;;;;6.47;2.70;;;;;;;;;;5034070;28;20205;-81
2021/12/12 10:32:55;;;;;;;5.40;2.53;;;;;;;;;;5017943;28;20705;-79
2021/12/12 10:35:28;;;;;;;6.27;2.83;;;;;;;;;;5034363;28;20285;-78
2021/12/12 10:37:58;;;;;;;6.10;2.60;;;;;;;;;;5034266;28;20260;-79
2021/12/12 10:40:27;;;;;;;5.73;2.70;;;;;;;;;;5034085;28;20201;-79
2021/12/12 10:42:57;;;;;;;4.63;2.30;;;;;;;;;;5034110;28;20180;-78
2021/12/12 10:45:34;;;;;;;8.63;2.30;;;;;;;;;;5033876;28;20221;-78
2021/12/12 10:48:03;;;;;;;6.33;3.63;;;;;;;;;;5033963;28;20178;-79
2021/12/12 10:50:42;;;;;;;3.57;2.10;;;;;;;;;;5034050;28;20257;-78
2021/12/12 10:53:21;;;;;;;6.17;2.20;;;;;;;;;;5038229;28;20183;-79
2021/12/12 10:55:53;;;;;;;3.73;2.10;;;;;;;;;;5037906;28;20190;-79
2021/12/12 10:58:29;;;;;;;5.53;2.73;;;;;;;;;;5038221;28;20174;-78
2021/12/12 11:01:03;;;;;;;5.60;2.70;;;;;;;;;;5037890;28;20640;-78
2021/12/12 11:03:35;;;;;;;5.10;2.60;;;;;;;;;;5037846;28;20190;-78
2021/12/12 11:06:07;;;;;;;4.03;2.53;;;;;;;;;;5038006;28;20207;-78
2021/12/12 11:08:36;;;;;;;6.17;2.80;;;;;;;;;;5021739;28;20273;-79
2021/12/12 11:11:09;;;;;;;6.17;2.27;;;;;;;;;;5037812;28;20174;-78
2021/12/12 11:13:54;;;;;;;4.43;2.30;;;;;;;;;;5037694;28;20199;-78
2021/12/12 11:16:27;;;;;;;4.83;2.53;;;;;;;;;;5037646;28;20206;-78
2021/12/12 11:19:07;;;;;;;5.83;2.23;;;;;;;;;;5037874;28;20229;-78
2021/12/12 11:21:35;;;;;;;5.70;2.30;;;;;;;;;;5037669;28;20176;-78
2021/12/12 11:24:04;;;;;;;8.63;2.33;;;;;;;;;;5021155;28;20213;-79
2021/12/12 11:26:34;;;;;;;6.33;2.37;;;;;;;;;;5037458;28;20289;-78
2021/12/12 11:29:02;;;;;;;6.83;2.50;;;;;;;;;;5037219;28;20205;-78
2021/12/12 11:31:37;;;;;;;5.73;2.67;;;;;;;;;;5021113;28;20250;-78
2021/12/12 11:34:05;;;;;;;7.37;2.40;;;;;;;;;;5037583;28;20278;-79
2021/12/12 11:36:33;;;;;;;5.53;2.67;;;;;;;;;;5020972;28;20195;-80
2021/12/12 11:39:05;;;;;;;6.70;2.37;;;;;;;;;;5037313;28;20547;-79
2021/12/12 11:41:48;;;;;;;5.60;2.37;;;;;;;;;;5037086;28;20179;-79
2021/12/12 11:44:14;;;;;;;7.10;2.60;;;;;;;;;;5037494;28;20178;-79
2021/12/12 11:47:04;;;;;;;4.10;2.47;;;;;;;;;;5037619;28;20181;-78
2021/12/12 11:49:32;;;;;;;5.30;2.27;;;;;;;;;;5000557;28;20210;-78
2021/12/12 11:52:05;;;;;;;5.60;2.60;;;;;;;;;;5020357;28;20175;-78
2021/12/12 11:54:50;;;;;;;5.47;2.30;;;;;;;;;;5037530;28;20195;-78
2021/12/12 11:57:21;;;;;;;7.83;2.50;;;;;;;;;;5037158;28;20544;-79
2021/12/12 12:00:02;;;;;;;9.70;2.27;;;;;;;;;;5036769;28;20178;-79
2021/12/12 12:02:46;;;;;;;7.17;2.50;;;;;;;;;;5035241;28;20597;-78
2021/12/12 12:05:15;;;;;;;9.80;3.03;;;;;;;;;;5037030;28;20198;-79
2021/12/12 12:07:44;;;;;;;7.20;2.63;;;;;;;;;;5036998;28;20207;-78
2021/12/12 12:10:10;;;;;;;8.47;2.70;;;;;;;;;;5036743;28;20664;-79
2021/12/12 12:12:54;;;;;;;9.07;2.57;;;;;;;;;;5036581;28;20224;-80
2021/12/12 12:15:38;;;;;;;5.17;2.27;;;;;;;;;;5036656;28;20240;-78
2021/12/12 12:18:22;;;;;;;5.33;2.67;;;;;;;;;;5036772;28;20204;-78
2021/12/12 12:20:59;;;;;;;4.73;2.23;;;;;;;;;;5036331;28;20657;-78
2021/12/12 12:26:51;;;;;;;4.23;2.63;;;;;;;;;;5054222;28;20290;-78
2021/12/12 12:29:33;;;;;;;7.00;2.70;;;;;;;;;;5024308;28;20202;-79
2021/12/12 12:32:05;;;;;;;6.17;2.80;;;;;;;;;;5036385;28;20603;-78
2021/12/12 12:34:44;;;;;;;7.40;2.70;;;;;;;;;;5036440;28;20554;-78
2021/12/12 12:37:28;;;;;;;6.47;2.70;;;;;;;;;;5036480;28;20201;-78
2021/12/12 12:40:13;;;;;;;8.40;2.67;;;;;;;;;;5036035;28;20550;-79
2021/12/12 12:42:58;;;;;;;5.70;2.57;;;;;;;;;;5035771;28;20710;-79
2021/12/12 12:45:24;;;;;;;5.57;2.63;;;;;;;;;;5037505;28;20218;-78
2021/12/12 12:48:09;;;;;;;5.40;3.07;;;;;;;;;;5037651;28;20177;-79
2021/12/12 12:50:42;;;;;;;4.77;2.50;;;;;;;;;;5037545;28;20295;-78
2021/12/12 12:53:31;;;;;;;8.00;2.53;;;;;;;;;;5037686;28;20206;-79
2021/12/12 12:56:16;;;;;;;7.93;2.80;;;;;;;;;;5001270;28;20725;-79
2021/12/12 12:58:55;;;;;;;4.77;2.47;;;;;;;;;;5037401;28;20188;-78
2021/12/12 13:01:25;;;;;;;6.20;2.43;;;;;;;;;;5036087;28;20181;-76
2021/12/12 13:04:22;;;;;;;3.63;2.20;;;;;;;;;;5035799;28;20222;-76
2021/12/12 13:07:08;;;;;;;3.70;2.30;;;;;;;;;;5036179;28;20175;-77
2021/12/12 13:09:46;;;;;;;4.87;2.30;;;;;;;;;;5036251;28;20293;-76
2021/12/12 13:12:12;;;;;;;4.67;2.70;;;;;;;;;;5036161;28;20390;-76
2021/12/12 13:14:45;;;;;;;3.13;2.27;;;;;;;;;;5035485;28;20196;-76
2021/12/12 13:17:22;;;;;;;6.60;2.50;;;;;;;;;;5036085;28;20175;-80
2021/12/12 13:20:03;;;;;;;3.63;2.13;;;;;;;;;;5037238;28;20177;-80
2021/12/12 13:22:51;;;;;;;4.67;2.40;;;;;;;;;;5037344;28;20557;-80
2021/12/12 13:25:21;;;;;;;3.77;2.60;;;;;;;;;;5020673;28;20216;-78
2021/12/12 13:28:19;;;;;;;5.20;2.30;;;;;;;;;;5020904;28;20180;-79
2021/12/12 13:31:01;;;;;;;4.40;2.83;;;;;;;;;;5035633;28;20733;-79
2021/12/12 13:33:31;;;;;;;4.00;2.30;;;;;;;;;;5035810;28;20263;-77
2021/12/12 13:36:00;;;;;;;3.43;2.70;;;;;;;;;;5035809;28;20252;-77
2021/12/12 13:38:31;;;;;;;3.57;2.60;;;;;;;;;;5036121;28;20269;-77
2021/12/12 13:41:07;;;;;;;6.67;3.00;;;;;;;;;;5035925;28;20177;-77
2021/12/12 13:43:45;;;;;;;3.90;2.40;;;;;;;;;;5036099;28;20175;-79
2021/12/12 13:46:34;;;;;;;3.43;2.10;;;;;;;;;;5035455;28;20214;-76
2021/12/12 13:49:23;;;;;;;4.07;2.50;;;;;;;;;;5035580;28;20175;-75
2021/12/12 13:51:58;;;;;;;3.40;2.57;;;;;;;;;;5035227;28;20171;-76
2021/12/12 13:54:36;;;;;;;3.07;2.00;;;;;;;;;;5035540;28;20175;-76
2021/12/12 13:57:30;;;;;;;2.80;2.40;;;;;;;;;;5035110;28;20217;-76
2021/12/12 13:59:56;;;;;;;4.03;2.57;;;;;;;;;;5035545;28;20205;-76
2021/12/12 14:02:22;;;;;;;3.93;2.90;;;;;;;;;;5035333;28;20213;-75
2021/12/12 14:05:02;;;;;;;3.30;2.60;;;;;;;;;;5018951;28;20222;-77
2021/12/12 14:07:31;;;;;;;3.47;2.70;;;;;;;;;;5035335;28;20173;-77
2021/12/12 14:09:57;;;;;;;4.10;2.63;;;;;;;;;;5034848;28;20291;-77
2021/12/12 14:12:26;;;;;;;4.00;3.53;;;;;;;;;;5018502;28;20214;-77
2021/12/12 14:15:05;;;;;;;4.73;2.80;;;;;;;;;;5035068;28;20194;-77
2021/12/12 14:17:44;;;;;;;4.03;2.10;;;;;;;;;;5035249;28;20180;-77
2021/12/12 14:20:12;;;;;;;5.17;2.60;;;;;;;;;;5035135;28;20223;-77
2021/12/12 14:22:38;;;;;;;4.03;2.97;;;;;;;;;;5018252;28;20660;-77
2021/12/12 14:25:06;;;;;;;4.27;2.10;;;;;;;;;;5018316;28;20621;-77
2021/12/12 14:27:32;;;;;;;3.90;2.70;;;;;;;;;;5034617;28;20191;-77
2021/12/12 14:30:01;;;;;;;2.47;2.03;;;;;;;;;;5035010;28;20212;-78
2021/12/12 14:32:31;;;;;;;3.83;2.20;;;;;;;;;;5034944;28;20254;-77
2021/12/12 14:35:01;;;;;;;2.10;1.90;;;;;;;;;;5034769;28;20204;-77
2021/12/12 14:37:28;;;;;;;3.00;1.90;;;;;;;;;;5034809;28;20265;-76
2021/12/12 14:40:00;;;;;;;2.43;2.23;;;;;;;;;;5034763;28;20183;-76
2021/12/12 14:42:27;;;;;;;4.37;2.30;;;;;;;;;;5034704;28;20182;-76
2021/12/12 14:44:53;;;;;;;3.00;2.23;;;;;;;;;;5018174;28;20212;-76
2021/12/12 14:47:39;;;;;;;3.60;2.00;;;;;;;;;;5018136;28;20181;-76
2021/12/12 14:50:11;;;;;;;2.03;1.70;;;;;;;;;;5034488;28;20260;-76
2021/12/12 14:52:38;;;;;;;2.80;2.00;;;;;;;;;;5034612;28;20631;-76
2021/12/12 14:55:10;;;;;;;3.53;2.00;;;;;;;;;;5034578;28;20199;-77
2021/12/12 14:57:37;;;;;;;2.50;2.00;;;;;;;;;;5034754;28;20181;-77
2021/12/12 15:00:26;;;;;;;2.37;2.10;;;;;;;;;;5018351;28;20193;-75
2021/12/12 15:02:55;;;;;;;3.30;2.30;;;;;;;;;;5024489;28;20191;-75
2021/12/12 15:05:24;;;;;;;3.53;2.27;;;;;;;;;;5017949;28;20667;-77
2021/12/12 15:07:52;;;;;;;3.27;1.97;;;;;;;;;;5018092;28;20664;-77
2021/12/12 15:10:25;;;;;;;2.30;2.00;;;;;;;;;;5017924;28;20720;-77
2021/12/12 15:12:52;;;;;;;2.47;2.00;;;;;;;;;;5034503;28;20167;-77
2021/12/12 15:15:26;;;;;;;2.20;2.00;;;;;;;;;;5018175;28;20288;-76
2021/12/12 15:18:04;;;;;;;2.40;2.00;;;;;;;;;;5034613;28;20618;-77
2021/12/12 15:21:03;;;;;;;1.77;1.63;;;;;;;;;;5033911;28;20188;-77
2021/12/12 15:23:31;;;;;;;2.40;1.87;;;;;;;;;;5035290;28;20199;-80